createdAt,value
2023-03-18T00:01:13.212Z,33.00
2023-03-18T00:03:41.620Z,32.72
2023-03-18T00:06:15.924Z,32.75
2023-03-18T00:08:45.417Z,33.14
2023-03-18T00:11:14.575Z,33.30
2023-03-18T00:13:43.544Z,33.18
2023-03-18T00:16:20.058Z,33.07
2023-03-18T00:18:48.913Z,32.95
2023-03-18T00:21:17.078Z,33.06
2023-03-18T00:23:45.688Z,32.86
2023-03-18T00:26:15.985Z,32.71
2023-03-18T00:28:44.352Z,33.06
2023-03-18T00:31:13.935Z,33.09
2023-03-18T00:33:45.889Z,32.90
2023-03-18T00:36:16.800Z,32.62
2023-03-18T00:38:46.270Z,32.43
2023-03-18T00:41:16.317Z,32.38
2023-03-18T00:43:46.968Z,32.31
2023-03-18T00:46:18.161Z,32.17
2023-03-18T00:48:51.301Z,32.19
2023-03-18T00:51:20.699Z,32.37
2023-03-18T00:53:56.145Z,32.50
2023-03-18T00:56:25.821Z,32.24
2023-03-18T00:58:54.309Z,31.99
2023-03-18T01:01:23.470Z,31.68
2023-03-18T01:03:53.509Z,31.69
2023-03-18T01:06:25.697Z,31.59
2023-03-18T01:08:54.338Z,31.89
2023-03-18T01:11:23.293Z,31.78
2023-03-18T01:13:51.839Z,31.81
2023-03-18T01:16:21.085Z,31.80
2023-03-18T01:18:49.168Z,31.89
2023-03-18T01:21:19.145Z,31.76
2023-03-18T01:23:51.501Z,31.63
2023-03-18T01:26:19.849Z,31.74
2023-03-18T01:28:48.132Z,31.72
2023-03-18T01:31:16.455Z,31.94
2023-03-18T01:33:46.020Z,31.79
2023-03-18T01:36:16.015Z,32.09
2023-03-18T01:38:44.954Z,32.26
2023-03-18T01:41:17.409Z,32.23
2023-03-18T01:43:46.209Z,31.78
2023-03-18T01:46:34.961Z,32.14
2023-03-18T01:49:07.935Z,32.04
2023-03-18T01:51:36.110Z,31.92
2023-03-18T01:54:05.578Z,31.67
2023-03-18T01:56:34.320Z,31.42
2023-03-18T01:59:03.730Z,31.41
2023-03-18T02:02:01.421Z,31.64
2023-03-18T02:04:35.333Z,31.28
2023-03-18T02:07:04.360Z,31.27
2023-03-18T02:09:32.772Z,31.15
2023-03-18T02:12:03.931Z,31.33
2023-03-18T02:14:32.789Z,31.32
2023-03-18T02:17:03.499Z,31.39
2023-03-18T02:20:03.197Z,31.61
2023-03-18T02:22:38.482Z,31.47
2023-03-18T02:25:31.983Z,31.48
2023-03-18T02:28:06.293Z,31.40
2023-03-18T02:30:44.096Z,31.36
2023-03-18T02:33:16.083Z,31.17
2023-03-18T02:35:50.478Z,31.19
2023-03-18T02:38:20.020Z,31.44
2023-03-18T02:40:49.087Z,31.36
2023-03-18T02:43:24.711Z,31.14
2023-03-18T02:46:30.031Z,31.13
2023-03-18T02:48:59.978Z,30.97
2023-03-18T02:51:28.334Z,30.94
2023-03-18T02:54:01.693Z,30.85
2023-03-18T02:56:30.172Z,30.73
2023-03-18T02:58:58.593Z,30.79
2023-03-18T03:01:28.005Z,30.59
2023-03-18T03:03:56.693Z,30.54
2023-03-18T03:06:25.680Z,30.75
2023-03-18T03:08:54.597Z,30.74
2023-03-18T03:11:23.770Z,30.89
2023-03-18T03:13:52.046Z,30.65
2023-03-18T03:16:20.813Z,30.23
2023-03-18T03:18:49.010Z,30.37
2023-03-18T03:21:20.773Z,30.69
2023-03-18T03:23:50.166Z,31.08
2023-03-18T03:26:21.220Z,31.07
2023-03-18T03:28:49.855Z,30.75
2023-03-18T03:31:18.229Z,30.58
2023-03-18T03:33:46.431Z,30.26
2023-03-18T03:36:16.487Z,30.26
2023-03-18T03:38:47.211Z,30.39
2023-03-18T03:41:16.024Z,30.43
2023-03-18T03:43:44.976Z,30.39
2023-03-18T03:46:13.203Z,30.33
2023-03-18T03:48:42.653Z,30.29
2023-03-18T03:51:15.101Z,30.44
2023-03-18T03:53:46.280Z,30.55
2023-03-18T03:56:15.756Z,30.48
2023-03-18T03:58:45.926Z,30.31
2023-03-18T04:01:14.480Z,30.58
2023-03-18T04:03:44.938Z,30.29
2023-03-18T04:06:13.495Z,30.25
2023-03-18T04:08:47.729Z,30.19
2023-03-18T04:11:17.750Z,30.09
2023-03-18T04:13:46.712Z,29.91
2023-03-18T04:16:19.944Z,30.27
2023-03-18T04:18:50.851Z,30.05
2023-03-18T04:21:22.278Z,30.21
2023-03-18T04:23:55.655Z,29.91
2023-03-18T04:26:24.273Z,30.23
2023-03-18T04:28:57.750Z,30.02
2023-03-18T04:31:25.981Z,30.05
2023-03-18T04:33:55.548Z,30.19
2023-03-18T04:36:24.641Z,30.46
2023-03-18T04:38:53.227Z,30.51
2023-03-18T04:41:22.945Z,30.81
2023-03-18T04:43:51.567Z,31.00
2023-03-18T04:46:19.884Z,31.20
2023-03-18T04:48:49.545Z,31.27
2023-03-18T04:51:18.870Z,30.99
2023-03-18T04:53:49.324Z,30.61
2023-03-18T04:56:19.559Z,30.28
2023-03-18T04:58:50.951Z,30.42
2023-03-18T05:01:22.373Z,30.22
2023-03-18T05:03:51.190Z,29.82
2023-03-18T05:06:25.368Z,29.82
2023-03-18T05:09:00.523Z,29.72
2023-03-18T05:11:33.831Z,29.58
2023-03-18T05:14:08.255Z,29.74
2023-03-18T05:16:42.555Z,29.69
2023-03-18T05:19:14.029Z,29.69
2023-03-18T05:21:49.116Z,29.79
2023-03-18T05:24:19.305Z,30.02
2023-03-18T05:26:52.651Z,29.94
2023-03-18T05:29:24.087Z,29.82
2023-03-18T05:32:11.388Z,29.47
2023-03-18T05:34:40.804Z,29.37
2023-03-18T05:37:11.684Z,29.26
2023-03-18T05:39:45.069Z,29.02
2023-03-18T05:42:15.276Z,29.03
2023-03-18T05:44:47.121Z,28.94
2023-03-18T05:47:15.922Z,29.26
2023-03-18T05:49:52.890Z,29.10
2023-03-18T05:52:24.755Z,29.02
2023-03-18T05:54:55.738Z,29.32
2023-03-18T05:57:28.505Z,29.24
2023-03-18T06:00:00.974Z,29.14
2023-03-18T06:02:32.870Z,29.20
2023-03-18T06:05:01.574Z,29.30
2023-03-18T06:07:30.670Z,29.37
2023-03-18T06:10:01.142Z,29.23
2023-03-18T06:12:30.664Z,29.11
2023-03-18T06:14:59.727Z,29.16
2023-03-18T06:17:28.115Z,29.29
2023-03-18T06:19:59.189Z,29.20
2023-03-18T06:22:28.149Z,28.94
2023-03-18T06:25:01.424Z,29.08
2023-03-18T06:27:30.499Z,28.98
2023-03-18T06:30:08.461Z,29.01
2023-03-18T06:32:38.094Z,28.94
2023-03-18T06:35:11.015Z,28.60
2023-03-18T06:37:40.205Z,28.80
2023-03-18T06:40:09.537Z,28.49
2023-03-18T06:42:38.057Z,28.53
2023-03-18T06:45:13.759Z,28.48
2023-03-18T06:47:51.469Z,27.87
2023-03-18T06:50:20.767Z,27.72
2023-03-18T06:52:49.631Z,27.83
2023-03-18T06:55:20.068Z,27.34
2023-03-18T06:57:48.515Z,27.58
2023-03-18T07:00:19.977Z,27.72
2023-03-18T07:02:49.825Z,27.87
2023-03-18T07:05:20.733Z,27.62
2023-03-18T07:07:51.002Z,28.08
2023-03-18T07:10:24.574Z,28.32
2023-03-18T07:12:58.684Z,28.41
2023-03-18T07:15:27.469Z,28.43
2023-03-18T07:17:57.080Z,28.10
2023-03-18T07:20:25.990Z,27.67
2023-03-18T07:22:54.274Z,27.79
2023-03-18T07:25:23.056Z,27.75
2023-03-18T07:27:53.362Z,27.72
2023-03-18T07:30:21.947Z,27.62
2023-03-18T07:32:50.891Z,27.75
2023-03-18T07:35:19.160Z,27.83
2023-03-18T07:37:48.388Z,27.84
2023-03-18T07:40:16.905Z,27.83
2023-03-18T07:42:46.503Z,27.64
2023-03-18T07:45:17.329Z,27.27
2023-03-18T07:47:47.218Z,27.43
2023-03-18T07:50:16.298Z,27.57
2023-03-18T07:52:48.403Z,27.24
2023-03-18T07:55:16.777Z,26.98
2023-03-18T07:57:47.517Z,26.61
2023-03-18T08:00:17.022Z,26.77
2023-03-18T08:02:45.473Z,26.68
2023-03-18T08:05:16.381Z,26.31
2023-03-18T08:07:45.295Z,26.61
2023-03-18T08:10:15.081Z,26.18
2023-03-18T08:12:53.054Z,26.36
2023-03-18T08:15:22.588Z,26.39
2023-03-18T08:17:54.248Z,26.64
2023-03-18T08:20:23.310Z,26.73
2023-03-18T08:22:52.031Z,26.39
2023-03-18T08:25:23.793Z,26.41
2023-03-18T08:27:52.559Z,26.67
2023-03-18T08:30:20.705Z,26.81
2023-03-18T08:32:49.371Z,26.55
2023-03-18T08:35:20.244Z,26.31
2023-03-18T08:37:51.227Z,26.52
2023-03-18T08:40:20.533Z,26.45
2023-03-18T08:42:49.240Z,26.61
2023-03-18T08:45:17.872Z,26.70
2023-03-18T08:47:45.886Z,26.93
2023-03-18T08:50:14.632Z,26.81
2023-03-18T08:52:43.672Z,27.03
2023-03-18T08:55:11.663Z,26.98
2023-03-18T08:57:40.205Z,26.69
2023-03-18T09:00:10.089Z,27.12
2023-03-18T09:02:44.401Z,27.08
2023-03-18T09:05:13.908Z,27.27
2023-03-18T09:07:41.947Z,26.95
2023-03-18T09:10:13.156Z,27.01
2023-03-18T09:12:42.432Z,27.00
2023-03-18T09:15:11.506Z,27.17
2023-03-18T09:17:56.548Z,27.09
2023-03-18T09:20:28.611Z,27.15
2023-03-18T09:23:00.250Z,27.14
2023-03-18T09:25:28.583Z,26.74
2023-03-18T09:27:56.777Z,26.68
2023-03-18T09:30:33.889Z,26.84
2023-03-18T09:33:02.467Z,27.22
2023-03-18T09:35:35.516Z,26.95
2023-03-18T09:38:04.882Z,26.94
2023-03-18T09:40:37.912Z,26.82
2023-03-18T09:43:29.774Z,26.76
2023-03-18T09:46:22.087Z,26.37
2023-03-18T09:49:25.993Z,26.20
2023-03-18T09:52:09.998Z,26.31
2023-03-18T09:54:41.437Z,26.39
2023-03-18T09:57:17.536Z,26.20
2023-03-18T09:59:47.958Z,26.28
2023-03-18T10:02:49.739Z,26.17
2023-03-18T10:05:32.805Z,26.06
2023-03-18T10:08:13.222Z,25.96
2023-03-18T10:10:44.094Z,25.89
2023-03-18T10:13:36.806Z,26.04
2023-03-18T10:16:06.148Z,25.75
2023-03-18T10:18:39.783Z,25.84
2023-03-18T10:21:27.794Z,25.63
2023-03-18T10:24:15.388Z,25.38
2023-03-18T10:26:52.667Z,25.65
2023-03-18T10:29:28.431Z,25.50
2023-03-18T10:32:46.341Z,25.43
2023-03-18T10:35:39.150Z,25.63
2023-03-18T10:38:43.365Z,25.43
2023-03-18T10:41:16.190Z,25.41
2023-03-18T10:43:46.119Z,25.38
2023-03-18T10:46:35.929Z,25.09
2023-03-18T10:49:08.221Z,25.13
2023-03-18T10:51:42.097Z,25.07
2023-03-18T10:54:24.280Z,24.97
2023-03-18T10:56:53.557Z,24.83
2023-03-18T10:59:22.885Z,25.02
2023-03-18T11:02:16.272Z,25.14
2023-03-18T11:04:54.538Z,25.43
2023-03-18T11:07:26.042Z,25.36
2023-03-18T11:09:58.033Z,25.25
2023-03-18T11:12:28.828Z,25.46
2023-03-18T11:14:58.086Z,25.42
2023-03-18T11:20:47.572Z,29.77
2023-03-18T11:23:19.182Z,27.41
2023-03-18T11:25:48.684Z,26.28
2023-03-18T11:28:23.402Z,25.97
2023-03-18T11:30:56.198Z,25.73
2023-03-18T11:33:25.836Z,25.58
2023-03-18T11:35:57.645Z,25.30
2023-03-18T11:38:33.600Z,24.51
2023-03-18T11:54:48.542Z,23.38
2023-03-18T11:57:23.993Z,21.94
2023-03-18T12:00:09.837Z,21.93
2023-03-18T12:02:49.950Z,21.96
2023-03-18T12:05:35.530Z,21.64
2023-03-18T12:08:24.502Z,21.79
2023-03-18T12:11:05.468Z,21.78
2023-03-18T12:13:46.765Z,21.61
2023-03-18T12:29:10.004Z,23.24
2023-03-18T12:31:48.869Z,22.31
2023-03-18T12:34:23.050Z,21.94
2023-03-18T12:36:59.741Z,21.78
2023-03-18T12:39:37.067Z,21.86
2023-03-18T12:42:39.101Z,21.91
2023-03-18T12:45:13.448Z,21.98
2023-03-18T12:47:49.860Z,22.02
2023-03-18T12:50:26.045Z,21.77
2023-03-18T12:53:16.550Z,21.72
2023-03-18T12:55:50.383Z,21.92
2023-03-18T12:58:24.763Z,22.25
2023-03-18T13:00:54.709Z,22.26
2023-03-18T13:03:44.859Z,22.14
2023-03-18T13:06:19.076Z,22.03
2023-03-18T13:09:00.562Z,21.88
2023-03-18T13:11:54.707Z,21.42
2023-03-18T13:14:39.433Z,21.77
2023-03-18T13:17:14.022Z,21.89
2023-03-18T13:19:42.185Z,22.32
2023-03-18T13:22:29.141Z,22.25
2023-03-18T13:25:06.130Z,22.45
2023-03-18T13:27:53.328Z,22.41
2023-03-18T13:30:56.919Z,22.35
2023-03-18T13:33:51.095Z,22.31
2023-03-18T13:36:32.004Z,22.36
2023-03-18T13:39:32.814Z,22.34
2023-03-18T13:42:20.621Z,22.34
2023-03-18T13:45:11.037Z,22.42
2023-03-18T13:47:39.330Z,22.68
2023-03-18T13:50:27.169Z,23.10
2023-03-18T13:52:56.034Z,23.03
2023-03-18T13:55:39.804Z,23.23
2023-03-18T13:58:17.683Z,23.10
2023-03-18T14:01:09.214Z,23.11
2023-03-18T14:03:53.443Z,23.12
2023-03-18T14:06:44.766Z,23.05
2023-03-18T14:09:25.393Z,22.67
2023-03-18T14:11:53.767Z,22.62
2023-03-18T14:14:41.881Z,22.57
2023-03-18T14:17:35.477Z,22.92
2023-03-18T14:20:17.563Z,22.88
2023-03-18T14:22:47.294Z,22.72
2023-03-18T14:25:18.107Z,22.74
2023-03-18T14:27:52.293Z,22.61
2023-03-18T14:30:32.433Z,22.53
2023-03-18T14:33:27.066Z,22.73
2023-03-18T14:36:10.103Z,22.82
2023-03-18T14:38:53.160Z,22.84
2023-03-18T14:41:22.690Z,22.80
2023-03-18T14:44:18.604Z,22.73
2023-03-18T14:46:46.793Z,22.99
2023-03-18T14:49:36.063Z,23.15
2023-03-18T14:52:15.891Z,23.12
2023-03-18T14:54:46.128Z,23.11
2023-03-18T14:57:14.486Z,23.04
2023-03-18T14:59:44.819Z,23.19
2023-03-18T15:02:30.621Z,23.22
2023-03-18T15:04:59.436Z,23.44
2023-03-18T15:07:38.230Z,23.43
2023-03-18T15:10:12.855Z,23.41
2023-03-18T15:12:42.820Z,23.62
2023-03-18T15:15:14.785Z,23.74
2023-03-18T15:17:49.204Z,23.29
2023-03-18T15:20:21.975Z,23.50
2023-03-18T15:22:50.464Z,23.66
2023-03-18T15:25:20.749Z,23.79
2023-03-18T15:27:50.115Z,23.89
2023-03-18T15:30:29.266Z,24.00
2023-03-18T15:33:08.216Z,23.86
2023-03-18T15:35:37.617Z,23.96
2023-03-18T15:38:12.350Z,24.36
2023-03-18T15:40:47.947Z,24.37
2023-03-18T15:43:35.706Z,24.31
2023-03-18T15:46:08.128Z,24.32
2023-03-18T15:48:42.229Z,24.19
2023-03-18T15:51:26.959Z,24.52
2023-03-18T15:54:03.506Z,24.33
2023-03-18T15:56:33.433Z,24.72
2023-03-18T15:59:16.064Z,24.85
2023-03-18T16:01:44.285Z,24.58
2023-03-18T16:04:15.200Z,24.75
2023-03-18T16:06:44.480Z,24.93
2023-03-18T16:09:17.405Z,24.82
2023-03-18T16:11:58.459Z,24.78
2023-03-18T16:14:53.306Z,24.93
2023-03-18T16:17:22.235Z,24.99
2023-03-18T16:19:55.257Z,25.17
2023-03-18T16:22:23.370Z,25.15
2023-03-18T16:24:51.897Z,25.06
2023-03-18T16:27:39.500Z,25.07
2023-03-18T16:30:23.455Z,25.25
2023-03-18T16:32:52.261Z,25.18
2023-03-18T16:35:25.504Z,25.27
2023-03-18T16:37:53.686Z,25.17
2023-03-18T16:40:24.855Z,25.66
2023-03-18T16:42:55.532Z,25.65
2023-03-18T16:45:31.264Z,25.58
2023-03-18T16:48:11.128Z,25.83
2023-03-18T16:50:41.736Z,25.73
2023-03-18T16:53:27.826Z,25.42
2023-03-18T16:55:59.844Z,25.51
2023-03-18T16:58:36.594Z,25.36
2023-03-18T17:01:07.799Z,25.19
2023-03-18T17:03:36.644Z,25.09
2023-03-18T17:06:09.342Z,25.39
2023-03-18T17:08:43.216Z,25.37
2023-03-18T17:11:16.394Z,25.54
2023-03-18T17:13:44.923Z,25.75
2023-03-18T17:16:18.218Z,25.86
2023-03-18T17:18:46.254Z,25.61
2023-03-18T17:21:17.088Z,25.47
2023-03-18T17:23:47.789Z,25.31
2023-03-18T17:26:16.493Z,25.14
2023-03-18T17:28:48.736Z,25.37
2023-03-18T17:31:17.538Z,25.44
2023-03-18T17:33:51.249Z,25.77
2023-03-18T17:36:20.765Z,25.61
2023-03-18T17:38:49.120Z,25.58
2023-03-18T17:41:20.190Z,25.48
2023-03-18T17:43:52.907Z,25.73
2023-03-18T17:46:21.142Z,25.45
2023-03-18T17:48:49.892Z,25.71
2023-03-18T17:51:23.677Z,26.03
2023-03-18T17:53:56.830Z,25.84
2023-03-18T17:56:27.070Z,25.97
2023-03-18T17:58:56.638Z,25.97
2023-03-18T18:01:29.139Z,26.01
2023-03-18T18:03:58.079Z,26.30
2023-03-18T18:06:34.419Z,26.48
2023-03-18T18:09:05.998Z,26.54
2023-03-18T18:11:47.105Z,26.38
2023-03-18T18:14:19.321Z,26.16
2023-03-18T18:16:47.839Z,26.76
2023-03-18T18:19:24.445Z,26.79
2023-03-18T18:21:53.448Z,27.77
2023-03-18T18:24:25.813Z,28.39
2023-03-18T18:26:55.108Z,28.21
2023-03-18T18:29:24.463Z,28.63
2023-03-18T18:31:58.710Z,29.27
2023-03-18T18:34:27.996Z,29.92
2023-03-18T18:36:56.330Z,29.44
2023-03-18T18:39:24.648Z,29.54
2023-03-18T18:42:08.278Z,29.37
2023-03-18T18:44:38.736Z,29.50
2023-03-18T18:47:19.963Z,30.05
2023-03-18T18:49:54.116Z,29.69
2023-03-18T18:52:23.193Z,29.41
2023-03-18T18:54:52.260Z,29.62
2023-03-18T18:57:24.792Z,29.73
2023-03-18T18:59:53.451Z,29.90
2023-03-18T19:02:33.780Z,30.03
2023-03-18T19:05:04.730Z,29.89
2023-03-18T19:07:33.833Z,30.08
2023-03-18T19:10:02.124Z,30.52
2023-03-18T19:12:31.086Z,30.90
2023-03-18T19:14:59.871Z,31.01
2023-03-18T19:17:28.459Z,30.63
2023-03-18T19:19:56.902Z,30.35
2023-03-18T19:22:26.258Z,30.51
2023-03-18T19:24:55.026Z,30.34
2023-03-18T19:27:29.526Z,30.23
2023-03-18T19:30:00.451Z,30.40
2023-03-18T19:32:28.618Z,30.77
2023-03-18T19:34:59.465Z,30.84
2023-03-18T19:37:32.529Z,30.62
2023-03-18T19:40:01.088Z,31.04
2023-03-18T19:42:29.814Z,31.18
2023-03-18T19:44:57.921Z,31.30
2023-03-18T19:47:28.252Z,31.63
2023-03-18T19:49:56.945Z,31.89
2023-03-18T19:52:28.423Z,32.46
2023-03-18T19:54:56.566Z,32.32
2023-03-18T19:57:29.424Z,31.92
2023-03-18T20:00:01.356Z,31.47
2023-03-18T20:02:31.424Z,31.31
2023-03-18T20:05:01.733Z,31.41
2023-03-18T20:07:32.559Z,31.17
2023-03-18T20:10:00.913Z,30.86
2023-03-18T20:12:43.719Z,31.02
2023-03-18T20:15:25.333Z,31.30
2023-03-18T20:17:53.581Z,31.28
2023-03-18T20:20:25.748Z,31.31
2023-03-18T20:22:56.789Z,31.25
2023-03-18T20:25:27.056Z,30.63
2023-03-18T20:27:58.358Z,30.77
2023-03-18T20:30:34.404Z,30.91
2023-03-18T20:33:07.651Z,30.91
2023-03-18T20:35:42.882Z,30.82
2023-03-18T20:38:18.955Z,30.67
2023-03-18T20:40:52.790Z,30.54
2023-03-18T20:43:23.100Z,30.84
2023-03-18T20:45:53.183Z,31.05
2023-03-18T20:48:22.826Z,31.40
2023-03-18T20:50:52.516Z,31.47
2023-03-18T20:53:26.451Z,31.86
2023-03-18T20:55:54.945Z,31.79
2023-03-18T20:58:27.523Z,31.78
2023-03-18T21:00:56.918Z,31.74
2023-03-18T21:03:27.598Z,31.76
2023-03-18T21:05:57.380Z,31.60
2023-03-18T21:08:26.136Z,31.67
2023-03-18T21:10:54.634Z,31.65
2023-03-18T21:13:31.120Z,32.31
2023-03-18T21:16:00.797Z,32.67
2023-03-18T21:18:29.203Z,32.74
2023-03-18T21:20:57.777Z,32.87
2023-03-18T21:23:27.763Z,32.75
2023-03-18T21:25:58.393Z,32.70
2023-03-18T21:28:29.638Z,33.03
2023-03-18T21:30:58.778Z,32.38
2023-03-18T21:33:28.008Z,32.24
2023-03-18T21:35:59.645Z,32.40
2023-03-18T21:38:29.522Z,32.52
2023-03-18T21:40:58.744Z,32.41
2023-03-18T21:43:34.783Z,32.34
2023-03-18T21:46:05.451Z,31.90
2023-03-18T21:48:33.790Z,31.58
2023-03-18T21:51:01.905Z,31.74
2023-03-18T21:53:30.225Z,31.53
2023-03-18T21:56:03.542Z,31.89
2023-03-18T21:58:33.962Z,31.89
2023-03-18T22:01:02.147Z,32.06
2023-03-18T22:03:33.207Z,32.06
2023-03-18T22:06:01.306Z,31.80
2023-03-18T22:08:31.276Z,31.81
2023-03-18T22:10:59.572Z,31.71
2023-03-18T22:13:27.751Z,31.84
2023-03-18T22:15:57.781Z,32.30
2023-03-18T22:18:29.392Z,32.23
2023-03-18T22:20:57.433Z,32.24
2023-03-18T22:23:31.273Z,32.63
2023-03-18T22:25:59.779Z,32.56
2023-03-18T22:28:32.445Z,33.01
2023-03-18T22:31:03.315Z,33.21
2023-03-18T22:33:32.691Z,32.98
2023-03-18T22:36:01.431Z,33.95
2023-03-18T22:38:32.987Z,33.94
2023-03-18T22:41:04.977Z,33.72
2023-03-18T22:43:36.337Z,33.64
2023-03-18T22:46:06.608Z,33.56
2023-03-18T22:48:36.675Z,33.23
2023-03-18T22:51:05.576Z,33.06
2023-03-18T22:53:38.452Z,33.30
2023-03-18T22:56:09.254Z,33.21
2023-03-18T22:58:37.564Z,33.83
2023-03-18T23:01:06.789Z,34.04
2023-03-18T23:03:36.459Z,34.17
2023-03-18T23:06:05.162Z,33.85
2023-03-18T23:08:34.362Z,33.60
2023-03-18T23:11:02.604Z,33.75
2023-03-18T23:13:37.074Z,34.07
2023-03-18T23:16:07.298Z,33.64
2023-03-18T23:18:35.636Z,33.67
2023-03-18T23:21:14.030Z,33.63
2023-03-18T23:23:44.005Z,33.16
2023-03-18T23:26:12.623Z,33.25
2023-03-18T23:28:44.880Z,33.26
2023-03-18T23:31:14.820Z,32.96
2023-03-18T23:33:44.976Z,32.70
2023-03-18T23:36:13.457Z,32.55
2023-03-18T23:38:45.487Z,32.59
2023-03-18T23:41:13.587Z,32.72
2023-03-18T23:43:51.136Z,33.25
2023-03-18T23:46:19.693Z,33.71
2023-03-18T23:48:48.159Z,33.88
2023-03-18T23:51:16.344Z,34.22
2023-03-18T23:53:44.852Z,34.07
2023-03-18T23:56:17.422Z,34.11
2023-03-18T23:58:46.804Z,34.18
